createdAt,value
2022-08-07T00:00:51.864Z,958.64
2022-08-07T00:02:36.731Z,958.65
2022-08-07T00:02:53.435Z,958.61
2022-08-07T00:03:50.834Z,958.63
2022-08-07T00:04:50.885Z,958.68
2022-08-07T00:05:50.805Z,958.69
2022-08-07T00:06:52.334Z,958.69
2022-08-07T00:07:59.767Z,958.61
2022-08-07T00:08:51.775Z,958.68
2022-08-07T00:10:04.883Z,958.67
2022-08-07T00:10:57.394Z,958.70
2022-08-07T00:11:55.895Z,958.68
2022-08-07T00:12:59.921Z,958.70
2022-08-07T00:13:51.714Z,958.63
2022-08-07T00:14:50.704Z,958.64
2022-08-07T00:15:50.941Z,958.71
2022-08-07T00:16:50.685Z,958.68
2022-08-07T00:17:50.673Z,958.69
2022-08-07T00:18:50.654Z,958.68
2022-08-07T00:20:02.468Z,958.61
2022-08-07T00:20:51.633Z,958.56
2022-08-07T00:21:57.312Z,958.60
2022-08-07T00:22:51.953Z,958.65
2022-08-07T00:23:50.603Z,958.58
2022-08-07T00:24:50.595Z,958.60
2022-08-07T00:25:52.075Z,958.61
2022-08-07T00:26:59.404Z,958.61
2022-08-07T00:27:52.224Z,958.62
2022-08-07T00:28:55.679Z,958.64
2022-08-07T00:29:51.532Z,958.61
2022-08-07T00:30:50.532Z,958.66
2022-08-07T00:31:51.304Z,958.59
2022-08-07T00:32:50.504Z,958.64
2022-08-07T00:33:50.492Z,958.53
2022-08-07T00:34:50.718Z,958.61
2022-08-07T00:35:50.492Z,958.59
2022-08-07T00:36:50.451Z,958.55
2022-08-07T00:37:50.448Z,958.56
2022-08-07T00:38:50.573Z,958.56
2022-08-07T00:39:54.560Z,958.57
2022-08-07T00:40:50.423Z,958.56
2022-08-07T00:41:53.871Z,958.46
2022-08-07T00:42:51.382Z,958.47
2022-08-07T00:44:00.977Z,958.45
2022-08-07T00:44:51.380Z,958.49
2022-08-07T00:45:50.350Z,958.50
2022-08-07T00:46:50.352Z,958.46
2022-08-07T00:48:07.792Z,958.43
2022-08-07T00:48:51.836Z,958.48
2022-08-07T00:50:19.780Z,958.48
2022-08-07T00:50:51.754Z,958.44
2022-08-07T00:51:58.767Z,958.37
2022-08-07T00:52:51.271Z,958.44
2022-08-07T00:53:55.856Z,958.39
2022-08-07T00:54:53.816Z,958.42
2022-08-07T00:56:03.181Z,958.39
2022-08-07T00:56:51.252Z,958.41
2022-08-07T00:57:55.827Z,958.37
2022-08-07T00:58:51.201Z,958.43
2022-08-07T00:59:50.189Z,958.39
2022-08-07T01:00:53.577Z,958.43
2022-08-07T01:01:50.196Z,958.42
2022-08-07T01:02:51.160Z,958.41
2022-08-07T01:03:57.092Z,958.40
2022-08-07T01:04:51.170Z,958.35
2022-08-07T01:05:51.697Z,958.39
2022-08-07T01:06:50.131Z,958.37
2022-08-07T01:07:50.100Z,958.37
2022-08-07T01:08:53.661Z,958.40
2022-08-07T01:10:06.991Z,958.36
2022-08-07T01:10:56.299Z,958.35
2022-08-07T01:12:23.797Z,958.33
2022-08-07T01:12:53.910Z,958.33
2022-08-07T01:13:56.108Z,958.33
2022-08-07T01:14:51.018Z,958.24
2022-08-07T01:16:05.039Z,958.23
2022-08-07T01:16:51.007Z,958.23
2022-08-07T01:17:49.987Z,958.19
2022-08-07T01:18:49.980Z,958.22
2022-08-07T01:19:54.410Z,958.21
2022-08-07T01:20:59.359Z,958.18
2022-08-07T01:21:53.287Z,958.10
2022-08-07T01:23:00.772Z,958.08
2022-08-07T01:23:50.919Z,958.19
2022-08-07T01:24:49.906Z,958.12
2022-08-07T01:25:56.162Z,958.17
2022-08-07T01:26:52.234Z,958.11
2022-08-07T01:27:50.972Z,958.10
2022-08-07T01:28:49.847Z,958.09
2022-08-07T01:29:50.623Z,958.07
2022-08-07T01:30:51.283Z,958.14
2022-08-07T01:31:49.940Z,958.12
2022-08-07T01:32:49.841Z,958.06
2022-08-07T01:33:55.541Z,958.10
2022-08-07T01:34:50.787Z,958.07
2022-08-07T01:35:54.086Z,958.05
2022-08-07T01:36:52.888Z,958.06
2022-08-07T01:37:50.748Z,958.03
2022-08-07T01:38:49.738Z,958.04
2022-08-07T01:39:49.784Z,957.99
2022-08-07T01:40:49.717Z,958.04
2022-08-07T01:42:07.677Z,958.04
2022-08-07T01:42:56.932Z,958.06
2022-08-07T01:43:50.686Z,958.08
2022-08-07T01:44:49.666Z,958.05
2022-08-07T01:45:49.664Z,958.04
2022-08-07T01:46:50.666Z,958.01
2022-08-07T01:48:18.320Z,958.02
2022-08-07T01:48:50.625Z,958.01
2022-08-07T01:49:49.623Z,958.04
2022-08-07T01:50:50.607Z,958.15
2022-08-07T01:52:03.095Z,958.09
2022-08-07T01:52:54.943Z,958.11
2022-08-07T01:54:12.283Z,958.17
2022-08-07T01:54:50.556Z,958.10
2022-08-07T01:55:49.546Z,958.07
2022-08-07T01:56:49.751Z,958.08
2022-08-07T01:58:01.154Z,958.12
2022-08-07T01:58:50.516Z,958.12
2022-08-07T01:59:49.507Z,958.07
2022-08-07T02:00:49.989Z,958.06
2022-08-07T02:02:02.331Z,958.07
2022-08-07T02:03:18.356Z,958.05
2022-08-07T02:03:51.137Z,958.01
2022-08-07T02:04:55.621Z,957.95
2022-08-07T02:06:01.007Z,957.99
2022-08-07T02:06:50.415Z,957.97
2022-08-07T02:07:50.542Z,957.98
2022-08-07T02:08:49.405Z,957.98
2022-08-07T02:09:53.258Z,957.92
2022-08-07T02:10:55.267Z,958.03
2022-08-07T02:12:02.928Z,957.94
2022-08-07T02:12:50.472Z,957.98
2022-08-07T02:13:57.458Z,957.93
2022-08-07T02:14:50.325Z,958.00
2022-08-07T02:15:49.314Z,958.04
2022-08-07T02:16:49.307Z,958.05
2022-08-07T02:17:51.680Z,957.92
2022-08-07T02:18:49.304Z,957.96
2022-08-07T02:20:05.311Z,957.97
2022-08-07T02:20:51.941Z,957.97
2022-08-07T02:21:56.476Z,957.96
2022-08-07T02:22:54.927Z,957.89
2022-08-07T02:23:50.235Z,957.91
2022-08-07T02:24:49.213Z,957.90
2022-08-07T02:26:31.081Z,957.93
2022-08-07T02:26:50.185Z,957.86
2022-08-07T02:27:52.252Z,957.92
2022-08-07T02:28:49.163Z,957.93
2022-08-07T02:29:54.477Z,957.93
2022-08-07T02:30:50.143Z,957.94
2022-08-07T02:31:49.143Z,957.93
2022-08-07T02:33:00.965Z,957.88
2022-08-07T02:34:01.503Z,957.89
2022-08-07T02:34:51.306Z,957.86
2022-08-07T02:36:26.955Z,957.93
2022-08-07T02:36:50.073Z,957.89
2022-08-07T02:37:49.074Z,957.93
2022-08-07T02:38:50.910Z,957.92
2022-08-07T02:40:02.317Z,957.90
2022-08-07T02:40:55.310Z,957.94
2022-08-07T02:41:54.205Z,957.91
2022-08-07T02:42:50.011Z,957.87
2022-08-07T02:43:49.951Z,957.86
2022-08-07T02:44:49.014Z,957.85
2022-08-07T02:45:58.361Z,957.89
2022-08-07T02:46:52.679Z,957.91
2022-08-07T02:47:49.441Z,957.88
2022-08-07T02:48:54.954Z,957.87
2022-08-07T02:49:57.568Z,957.93
2022-08-07T02:50:49.940Z,957.84
2022-08-07T02:51:51.891Z,957.89
2022-08-07T02:52:49.016Z,957.84
2022-08-07T02:53:48.881Z,957.84
2022-08-07T02:54:48.870Z,957.91
2022-08-07T02:56:03.498Z,957.91
2022-08-07T02:56:49.860Z,957.88
2022-08-07T02:57:48.862Z,957.89
2022-08-07T02:58:48.830Z,957.93
2022-08-07T02:59:55.023Z,957.96
2022-08-07T03:00:49.828Z,957.88
2022-08-07T03:01:52.165Z,957.91
2022-08-07T03:02:55.011Z,957.91
2022-08-07T03:03:50.903Z,957.94
2022-08-07T03:04:48.760Z,957.91
2022-08-07T03:05:48.753Z,957.92
2022-08-07T03:06:48.802Z,957.97
2022-08-07T03:08:07.700Z,957.95
2022-08-07T03:08:49.721Z,957.92
2022-08-07T03:09:51.968Z,957.88
2022-08-07T03:10:48.690Z,957.97
2022-08-07T03:11:52.521Z,957.87
2022-08-07T03:12:49.668Z,957.91
2022-08-07T03:13:49.335Z,957.89
2022-08-07T03:14:52.201Z,957.94
2022-08-07T03:15:56.251Z,957.93
2022-08-07T03:16:49.619Z,957.90
2022-08-07T03:17:53.999Z,957.89
2022-08-07T03:18:49.611Z,957.99
2022-08-07T03:19:55.196Z,957.94
2022-08-07T03:20:49.578Z,957.93
2022-08-07T03:21:50.432Z,957.96
2022-08-07T03:22:50.181Z,957.93
2022-08-07T03:24:20.400Z,957.91
2022-08-07T03:24:49.540Z,957.91
2022-08-07T03:25:50.833Z,957.94
2022-08-07T03:26:57.952Z,957.95
2022-08-07T03:28:09.012Z,957.98
2022-08-07T03:28:49.478Z,957.96
2022-08-07T03:29:50.759Z,958.02
2022-08-07T03:30:48.458Z,958.01
2022-08-07T03:31:49.854Z,958.02
2022-08-07T03:32:58.256Z,958.05
2022-08-07T03:33:49.428Z,958.08
2022-08-07T03:35:00.708Z,958.07
2022-08-07T03:35:50.483Z,958.08
2022-08-07T03:36:48.707Z,958.08
2022-08-07T03:37:54.054Z,958.06
2022-08-07T03:38:49.368Z,958.11
2022-08-07T03:39:59.339Z,958.07
2022-08-07T03:40:57.127Z,958.06
2022-08-07T03:41:50.982Z,958.08
2022-08-07T03:42:49.307Z,958.08
2022-08-07T03:43:57.137Z,957.97
2022-08-07T03:44:53.510Z,958.00
2022-08-07T03:45:48.546Z,958.03
2022-08-07T03:47:11.070Z,958.01
2022-08-07T03:47:51.435Z,957.95
2022-08-07T03:49:02.675Z,957.95
2022-08-07T03:49:53.549Z,957.97
2022-08-07T03:50:55.796Z,957.93
2022-08-07T03:51:56.051Z,957.89
2022-08-07T03:52:49.206Z,957.95
2022-08-07T03:54:05.542Z,957.95
2022-08-07T03:54:54.975Z,957.89
2022-08-07T03:55:58.227Z,957.91
2022-08-07T03:57:03.605Z,957.92
2022-08-07T03:58:33.614Z,958.00
2022-08-07T03:59:08.056Z,957.92
2022-08-07T04:00:02.799Z,957.96
2022-08-07T04:00:53.243Z,957.91
2022-08-07T04:01:49.151Z,957.89
2022-08-07T04:02:49.474Z,957.91
2022-08-07T04:03:49.674Z,957.97
2022-08-07T04:04:49.074Z,957.90
2022-08-07T04:05:48.075Z,957.87
2022-08-07T04:06:51.667Z,957.92
2022-08-07T04:07:48.443Z,957.89
2022-08-07T04:08:48.035Z,957.88
2022-08-07T04:09:50.403Z,957.82
2022-08-07T04:10:54.528Z,957.88
2022-08-07T04:12:25.319Z,957.89
2022-08-07T04:12:48.985Z,957.86
2022-08-07T04:14:09.515Z,957.87
2022-08-07T04:14:49.185Z,957.86
2022-08-07T04:15:49.163Z,957.84
2022-08-07T04:16:58.146Z,957.88
2022-08-07T04:18:57.824Z,957.90
2022-08-07T04:18:59.084Z,957.77
2022-08-07T04:19:52.500Z,957.80
2022-08-07T04:20:54.628Z,957.81
2022-08-07T04:21:59.277Z,957.83
2022-08-07T04:22:53.136Z,957.80
2022-08-07T04:24:07.863Z,957.79
2022-08-07T04:24:48.845Z,957.83
2022-08-07T04:25:47.833Z,957.92
2022-08-07T04:26:47.838Z,957.89
2022-08-07T04:28:00.357Z,957.89
2022-08-07T04:28:48.804Z,957.77
2022-08-07T04:29:58.381Z,957.86
2022-08-07T04:30:56.766Z,957.84
2022-08-07T04:32:03.345Z,957.79
2022-08-07T04:32:48.782Z,957.84
2022-08-07T04:33:54.915Z,957.83
2022-08-07T04:34:48.734Z,957.84
2022-08-07T04:35:50.138Z,957.85
2022-08-07T04:36:48.725Z,957.83
2022-08-07T04:38:00.871Z,957.85
2022-08-07T04:38:48.692Z,957.84
2022-08-07T04:39:47.977Z,957.81
2022-08-07T04:40:51.941Z,957.87
2022-08-07T04:41:50.406Z,957.82
2022-08-07T04:42:52.383Z,957.87
2022-08-07T04:44:12.743Z,957.91
2022-08-07T04:44:54.745Z,957.79
2022-08-07T04:46:00.889Z,957.83
2022-08-07T04:47:07.702Z,957.86
2022-08-07T04:47:57.414Z,957.88
2022-08-07T04:48:50.858Z,957.82
2022-08-07T04:50:03.830Z,957.84
2022-08-07T04:50:52.189Z,957.84
2022-08-07T04:51:47.541Z,957.82
2022-08-07T04:52:52.019Z,957.85
2022-08-07T04:54:05.147Z,957.94
2022-08-07T04:54:50.602Z,957.87
2022-08-07T04:58:12.384Z,957.84
2022-08-07T04:58:12.435Z,957.87
2022-08-07T04:58:13.257Z,957.85
2022-08-07T04:59:17.095Z,957.84
2022-08-07T05:00:13.304Z,957.87
2022-08-07T05:00:48.503Z,957.87
2022-08-07T05:01:47.429Z,957.91
2022-08-07T05:02:47.769Z,957.85
2022-08-07T05:04:06.504Z,957.87
2022-08-07T05:04:50.280Z,957.86
2022-08-07T05:05:53.857Z,957.93
2022-08-07T05:06:51.694Z,957.87
2022-08-07T05:07:51.711Z,957.90
2022-08-07T05:09:00.792Z,957.85
2022-08-07T05:09:48.342Z,957.88
2022-08-07T05:10:47.371Z,957.94
2022-08-07T05:11:57.215Z,957.90
2022-08-07T05:12:53.025Z,957.92
2022-08-07T05:14:54.374Z,957.89
2022-08-07T05:14:55.931Z,957.91
2022-08-07T05:15:48.268Z,957.83
2022-08-07T05:16:47.249Z,957.86
2022-08-07T05:18:00.599Z,957.89
2022-08-07T05:18:48.227Z,957.87
2022-08-07T05:19:47.230Z,957.86
2022-08-07T05:20:47.207Z,957.84
2022-08-07T05:22:00.107Z,957.83
2022-08-07T05:22:48.188Z,957.87
2022-08-07T05:23:47.185Z,957.89
2022-08-07T05:24:47.178Z,957.90
2022-08-07T05:26:11.084Z,957.90
2022-08-07T05:26:48.137Z,957.88
2022-08-07T05:28:03.386Z,957.90
2022-08-07T05:28:49.932Z,957.91
2022-08-07T05:29:51.299Z,957.98
2022-08-07T05:30:48.096Z,957.88
2022-08-07T05:31:51.139Z,957.91
2022-08-07T05:32:48.067Z,957.85
2022-08-07T05:33:51.288Z,957.92
2022-08-07T05:34:48.073Z,957.90
2022-08-07T05:35:47.856Z,957.92
2022-08-07T05:36:49.097Z,957.88
2022-08-07T05:37:48.015Z,957.88
2022-08-07T05:39:00.301Z,957.88
2022-08-07T05:40:07.157Z,957.85
2022-08-07T05:40:51.443Z,957.89
2022-08-07T05:42:00.667Z,957.86
2022-08-07T05:42:56.313Z,957.95
2022-08-07T05:44:08.136Z,957.87
2022-08-07T05:44:52.988Z,957.92
2022-08-07T05:45:48.352Z,957.91
2022-08-07T05:46:46.937Z,957.91
2022-08-07T05:48:01.843Z,957.92
2022-08-07T05:48:59.030Z,957.89
2022-08-07T05:49:47.876Z,957.92
2022-08-07T05:50:46.877Z,957.96
2022-08-07T05:51:46.931Z,957.91
2022-08-07T05:52:46.853Z,957.92
2022-08-07T05:54:09.343Z,957.93
2022-08-07T05:54:55.305Z,957.91
2022-08-07T05:56:03.551Z,957.89
2022-08-07T05:56:47.810Z,957.91
2022-08-07T05:57:46.835Z,957.89
2022-08-07T05:58:49.328Z,957.95
2022-08-07T05:59:57.994Z,957.97
2022-08-07T06:00:50.822Z,957.92
2022-08-07T06:01:46.786Z,957.92
2022-08-07T06:02:46.965Z,957.95
2022-08-07T06:03:53.167Z,957.94
2022-08-07T06:04:47.703Z,957.95
2022-08-07T06:05:48.838Z,957.99
2022-08-07T06:06:47.673Z,957.96
2022-08-07T06:08:14.612Z,957.94
2022-08-07T06:08:47.654Z,957.99
2022-08-07T06:10:05.731Z,957.98
2022-08-07T06:10:51.408Z,957.99
2022-08-07T06:11:46.633Z,957.98
2022-08-07T06:12:46.835Z,957.99
2022-08-07T06:14:11.625Z,958.00
2022-08-07T06:14:49.677Z,957.98
2022-08-07T06:15:46.632Z,958.00
2022-08-07T06:16:50.254Z,957.97
2022-08-07T06:17:53.647Z,957.97
2022-08-07T06:18:51.800Z,958.01
2022-08-07T06:20:03.222Z,957.95
2022-08-07T06:20:51.029Z,957.94
2022-08-07T06:22:15.415Z,957.94
2022-08-07T06:22:50.547Z,957.96
2022-08-07T06:24:46.014Z,958.00
2022-08-07T06:24:56.913Z,957.98
2022-08-07T06:25:54.324Z,957.95
2022-08-07T06:26:47.453Z,957.99
2022-08-07T06:28:01.666Z,957.96
2022-08-07T06:28:47.431Z,957.99
2022-08-07T06:29:46.423Z,957.97
2022-08-07T06:30:50.681Z,957.95
2022-08-07T06:31:50.360Z,957.95
2022-08-07T06:32:46.400Z,958.02
2022-08-07T06:33:46.381Z,957.94
2022-08-07T06:34:46.371Z,958.01
2022-08-07T06:35:48.048Z,958.07
2022-08-07T06:36:47.331Z,958.02
2022-08-07T06:37:46.478Z,958.01
2022-08-07T06:38:59.339Z,957.98
2022-08-07T06:40:17.562Z,958.10
2022-08-07T06:40:47.327Z,958.09
2022-08-07T06:42:02.045Z,958.07
2022-08-07T06:42:47.271Z,958.09
2022-08-07T06:43:59.498Z,958.04
2022-08-07T06:44:50.906Z,958.07
2022-08-07T06:45:46.241Z,958.05
2022-08-07T06:46:53.823Z,957.99
2022-08-07T06:47:57.140Z,958.02
2022-08-07T06:48:47.219Z,958.03
2022-08-07T06:49:51.721Z,958.02
2022-08-07T06:50:47.677Z,958.00
2022-08-07T06:51:50.060Z,957.98
2022-08-07T06:52:46.151Z,958.00
2022-08-07T06:54:11.625Z,958.00
2022-08-07T06:55:32.525Z,958.02
2022-08-07T06:56:00.452Z,957.98
2022-08-07T06:56:48.888Z,957.95
2022-08-07T06:57:49.978Z,958.03
2022-08-07T07:00:14.490Z,958.02
2022-08-07T07:00:14.715Z,958.01
2022-08-07T07:00:47.060Z,958.11
2022-08-07T07:01:48.697Z,958.01
2022-08-07T07:02:54.639Z,957.98
2022-08-07T07:03:49.018Z,958.02
2022-08-07T07:04:54.909Z,958.02
2022-08-07T07:06:03.450Z,958.05
2022-08-07T07:07:00.074Z,958.06
2022-08-07T07:07:59.183Z,958.08
2022-08-07T07:08:47.020Z,958.08
2022-08-07T07:09:45.989Z,958.05
2022-08-07T07:10:47.589Z,958.02
2022-08-07T07:12:08.217Z,958.01
2022-08-07T07:12:48.913Z,957.93
2022-08-07T07:13:58.061Z,957.93
2022-08-07T07:14:46.915Z,957.92
2022-08-07T07:15:45.908Z,957.90
2022-08-07T07:16:50.566Z,957.97
2022-08-07T07:17:50.466Z,957.98
2022-08-07T07:18:48.638Z,957.94
2022-08-07T07:19:57.795Z,957.91
2022-08-07T07:20:46.917Z,957.96
2022-08-07T07:22:11.843Z,957.90
2022-08-07T07:24:09.725Z,957.86
2022-08-07T07:24:11.034Z,957.89
2022-08-07T07:25:02.325Z,957.87
2022-08-07T07:26:35.115Z,957.89
2022-08-07T07:26:52.086Z,957.91
2022-08-07T07:27:55.439Z,957.95
2022-08-07T07:29:28.474Z,957.88
2022-08-07T07:30:07.425Z,957.93
2022-08-07T07:30:46.753Z,957.95
2022-08-07T07:31:46.593Z,957.85
2022-08-07T07:32:45.715Z,957.86
2022-08-07T07:33:49.047Z,957.81
2022-08-07T07:34:48.706Z,957.85
2022-08-07T07:36:03.947Z,957.86
2022-08-07T07:36:48.067Z,957.90
2022-08-07T07:37:49.983Z,957.89
2022-08-07T07:38:47.509Z,957.89
2022-08-07T07:39:54.477Z,957.83
2022-08-07T07:40:47.596Z,957.85
2022-08-07T07:41:50.878Z,957.83
2022-08-07T07:42:47.021Z,957.79
2022-08-07T07:44:14.434Z,957.77
2022-08-07T07:44:49.522Z,957.76
2022-08-07T07:46:38.296Z,957.75
2022-08-07T07:46:57.166Z,957.76
2022-08-07T07:47:52.409Z,957.74
2022-08-07T07:48:46.528Z,957.70
2022-08-07T07:50:36.041Z,957.67
2022-08-07T07:50:46.507Z,957.73
2022-08-07T07:51:57.937Z,957.70
2022-08-07T07:52:47.091Z,957.63
2022-08-07T07:53:52.155Z,957.69
2022-08-07T07:54:51.396Z,957.67
2022-08-07T07:55:54.749Z,957.65
2022-08-07T07:56:46.435Z,957.65
2022-08-07T07:57:52.985Z,957.60
2022-08-07T07:58:46.424Z,957.71
2022-08-07T07:59:51.719Z,957.66
2022-08-07T08:00:50.854Z,957.63
2022-08-07T08:02:03.563Z,957.66
2022-08-07T08:03:05.722Z,957.63
2022-08-07T08:04:10.389Z,957.67
2022-08-07T08:04:46.391Z,957.61
2022-08-07T08:05:55.368Z,957.57
2022-08-07T08:06:51.956Z,957.55
2022-08-07T08:07:59.734Z,957.52
2022-08-07T08:08:46.304Z,957.60
2022-08-07T08:09:52.444Z,957.67
2022-08-07T08:10:46.294Z,957.57
2022-08-07T08:11:59.970Z,957.65
2022-08-07T08:12:52.213Z,957.66
2022-08-07T08:13:54.402Z,957.65
2022-08-07T08:14:46.234Z,957.61
2022-08-07T08:15:59.181Z,957.78
2022-08-07T08:16:50.672Z,957.67
2022-08-07T08:17:57.097Z,957.65
2022-08-07T08:18:46.183Z,957.68
2022-08-07T08:20:19.531Z,957.72
2022-08-07T08:20:47.837Z,957.63
2022-08-07T08:22:02.518Z,957.69
2022-08-07T08:22:56.066Z,957.65
2022-08-07T08:23:46.201Z,957.64
2022-08-07T08:24:46.653Z,957.67
2022-08-07T08:25:49.206Z,957.62
2022-08-07T08:26:45.092Z,957.62
2022-08-07T08:27:56.957Z,957.64
2022-08-07T08:28:46.072Z,957.64
2022-08-07T08:29:55.932Z,957.68
2022-08-07T08:30:51.508Z,957.63
2022-08-07T08:32:10.258Z,957.65
2022-08-07T08:32:48.996Z,957.65
2022-08-07T08:33:49.944Z,957.70
2022-08-07T08:34:46.005Z,957.68
2022-08-07T08:35:49.749Z,957.70
2022-08-07T08:36:46.323Z,957.72
2022-08-07T08:38:00.465Z,957.73
2022-08-07T08:38:45.981Z,957.76
2022-08-07T08:39:55.253Z,957.76
2022-08-07T08:40:46.939Z,957.71
2022-08-07T08:41:57.469Z,957.73
2022-08-07T08:42:45.930Z,957.71
2022-08-07T08:43:56.134Z,957.74
2022-08-07T08:44:46.007Z,957.74
2022-08-07T08:45:59.187Z,957.69
2022-08-07T08:46:46.024Z,957.65
2022-08-07T08:47:52.744Z,957.72
2022-08-07T08:48:45.881Z,957.68
2022-08-07T08:49:46.260Z,957.69
2022-08-07T08:50:44.822Z,957.74
2022-08-07T08:52:12.649Z,957.75
2022-08-07T08:52:53.648Z,957.72
2022-08-07T08:53:45.904Z,957.68
2022-08-07T08:54:44.771Z,957.71
2022-08-07T08:55:54.259Z,957.64
2022-08-07T08:56:47.610Z,957.72
2022-08-07T08:57:45.114Z,957.67
2022-08-07T08:58:44.733Z,957.78
2022-08-07T08:59:48.010Z,957.75
2022-08-07T09:00:48.631Z,957.71
2022-08-07T09:01:49.306Z,957.73
2022-08-07T09:02:49.422Z,957.75
2022-08-07T09:03:49.538Z,957.76
2022-08-07T09:04:44.682Z,957.74
2022-08-07T09:05:44.651Z,957.75
2022-08-07T09:06:47.827Z,957.82
2022-08-07T09:07:46.455Z,957.72
2022-08-07T09:08:46.796Z,957.78
2022-08-07T09:09:44.612Z,957.74
2022-08-07T09:10:44.978Z,957.76
2022-08-07T09:11:53.228Z,957.78
2022-08-07T09:12:53.650Z,957.81
2022-08-07T09:13:45.558Z,957.76
2022-08-07T09:14:50.599Z,957.82
2022-08-07T09:16:25.298Z,957.79
2022-08-07T09:16:45.688Z,957.73
2022-08-07T09:17:59.596Z,957.77
2022-08-07T09:18:53.002Z,957.74
2022-08-07T09:19:53.657Z,957.74
2022-08-07T09:20:58.582Z,957.74
2022-08-07T09:22:09.760Z,957.78
2022-08-07T09:24:33.302Z,957.68
2022-08-07T09:24:55.065Z,957.71
2022-08-07T09:24:55.110Z,957.70
2022-08-07T09:25:54.692Z,957.68
2022-08-07T09:26:47.835Z,957.68
2022-08-07T09:28:00.671Z,957.72
2022-08-07T09:30:04.470Z,957.69
2022-08-07T09:30:05.170Z,957.73
2022-08-07T09:30:46.450Z,957.71
2022-08-07T09:31:49.230Z,957.66
2022-08-07T09:32:45.349Z,957.66
2022-08-07T09:33:56.518Z,957.62
2022-08-07T09:34:45.329Z,957.60
2022-08-07T09:36:04.386Z,957.62
2022-08-07T09:36:46.914Z,957.64
2022-08-07T09:37:48.118Z,957.62
2022-08-07T09:38:50.251Z,957.64
2022-08-07T09:39:53.867Z,957.65
2022-08-07T09:40:45.259Z,957.60
2022-08-07T09:41:58.921Z,957.68
2022-08-07T09:42:45.548Z,957.61
2022-08-07T09:44:05.473Z,957.63
2022-08-07T09:44:58.626Z,957.64
2022-08-07T09:47:42.382Z,957.61
2022-08-07T09:47:51.540Z,957.57
2022-08-07T09:48:00.085Z,957.64
2022-08-07T09:48:56.211Z,957.55
2022-08-07T09:50:01.835Z,957.61
2022-08-07T09:50:45.152Z,957.57
2022-08-07T09:52:15.407Z,957.55
2022-08-07T09:52:51.592Z,957.51
2022-08-07T09:53:47.251Z,957.49
2022-08-07T09:54:45.102Z,957.53
2022-08-07T09:56:03.762Z,957.51
2022-08-07T09:56:46.357Z,957.50
2022-08-07T09:57:46.474Z,957.49
2022-08-07T09:58:48.732Z,957.49
2022-08-07T10:00:00.803Z,957.51
2022-08-07T10:00:45.028Z,957.54
2022-08-07T10:01:51.018Z,957.58
2022-08-07T10:02:55.268Z,957.48
2022-08-07T10:04:07.118Z,957.48
2022-08-07T10:04:46.016Z,957.52
2022-08-07T10:05:59.556Z,957.48
2022-08-07T10:06:49.094Z,957.45
2022-08-07T10:07:53.720Z,957.49
2022-08-07T10:08:44.928Z,957.49
2022-08-07T10:10:00.755Z,957.51
2022-08-07T10:12:01.940Z,957.44
2022-08-07T10:12:52.626Z,957.54
2022-08-07T10:14:01.003Z,957.42
2022-08-07T10:14:47.489Z,957.50
2022-08-07T10:15:45.035Z,957.47
2022-08-07T10:16:45.242Z,957.46
2022-08-07T10:18:00.785Z,957.44
2022-08-07T10:18:44.829Z,957.45
2022-08-07T10:19:43.889Z,957.44
2022-08-07T10:20:44.392Z,957.49
2022-08-07T10:22:14.982Z,957.47
2022-08-07T10:22:45.295Z,957.42
2022-08-07T10:24:05.582Z,957.41
2022-08-07T10:24:44.748Z,957.40
2022-08-07T10:25:43.777Z,957.32
2022-08-07T10:26:44.212Z,957.32
2022-08-07T10:27:47.093Z,957.37
2022-08-07T10:28:49.681Z,957.31
2022-08-07T10:29:45.883Z,957.37
2022-08-07T10:30:44.687Z,957.32
2022-08-07T10:31:45.318Z,957.24
2022-08-07T10:32:52.661Z,957.34
2022-08-07T10:34:05.886Z,957.33
2022-08-07T10:34:45.146Z,957.26
2022-08-07T10:35:56.674Z,957.31
2022-08-07T10:36:45.467Z,957.27
2022-08-07T10:38:00.684Z,957.32
2022-08-07T10:38:48.906Z,957.34
2022-08-07T10:40:03.092Z,957.28
2022-08-07T10:40:44.568Z,957.31
2022-08-07T10:41:52.339Z,957.24
2022-08-07T10:42:44.547Z,957.25
2022-08-07T10:43:43.567Z,957.27
2022-08-07T10:44:45.480Z,957.29
2022-08-07T10:45:44.009Z,957.24
2022-08-07T10:46:43.505Z,957.23
2022-08-07T10:47:52.832Z,957.17
2022-08-07T10:48:44.477Z,957.22
2022-08-07T10:49:49.031Z,957.20
2022-08-07T10:50:44.897Z,957.17
2022-08-07T10:52:02.014Z,957.23
2022-08-07T10:52:51.186Z,957.25
2022-08-07T10:53:45.062Z,957.32
2022-08-07T10:54:53.464Z,957.29
2022-08-07T10:55:44.407Z,957.29
2022-08-07T10:56:43.398Z,957.23
2022-08-07T10:57:43.404Z,957.21
2022-08-07T10:58:45.959Z,957.20
2022-08-07T10:59:47.253Z,957.14
2022-08-07T11:00:50.145Z,957.15
2022-08-07T11:01:51.099Z,957.16
2022-08-07T11:02:49.060Z,957.16
2022-08-07T11:03:54.845Z,957.18
2022-08-07T11:04:45.555Z,957.18
2022-08-07T11:05:48.985Z,957.17
2022-08-07T11:06:44.565Z,957.12
2022-08-07T11:08:00.804Z,957.09
2022-08-07T11:08:44.257Z,957.18
2022-08-07T11:10:08.553Z,957.15
2022-08-07T11:10:45.940Z,957.12
2022-08-07T11:11:44.217Z,957.10
2022-08-07T11:12:44.206Z,957.07
2022-08-07T11:14:46.027Z,957.15
2022-08-07T11:15:00.181Z,957.11
2022-08-07T11:15:44.198Z,957.07
2022-08-07T11:16:47.998Z,957.13
2022-08-07T11:17:45.829Z,957.13
2022-08-07T11:18:43.146Z,957.04
2022-08-07T11:19:43.126Z,957.05
2022-08-07T11:20:43.117Z,957.00
2022-08-07T11:21:43.231Z,957.13
2022-08-07T11:22:46.242Z,957.07
2022-08-07T11:23:43.088Z,956.98
2022-08-07T11:24:45.536Z,957.02
2022-08-07T11:25:49.730Z,956.91
2022-08-07T11:26:50.350Z,956.95
2022-08-07T11:28:03.026Z,956.96
2022-08-07T11:28:44.027Z,956.88
2022-08-07T11:29:48.343Z,956.90
2022-08-07T11:30:44.013Z,956.88
2022-08-07T11:31:45.063Z,956.87
2022-08-07T11:32:42.987Z,956.96
2022-08-07T11:33:58.520Z,956.95
2022-08-07T11:34:43.965Z,956.94
2022-08-07T11:35:59.473Z,956.91
2022-08-07T11:36:43.978Z,956.91
2022-08-07T11:37:57.470Z,956.89
2022-08-07T11:38:50.334Z,956.86
2022-08-07T11:39:59.807Z,956.83
2022-08-07T11:40:49.398Z,956.86
2022-08-07T11:42:01.894Z,956.92
2022-08-07T11:42:43.887Z,956.80
2022-08-07T11:44:11.062Z,956.82
2022-08-07T11:44:52.081Z,956.83
2022-08-07T11:45:53.324Z,956.77
2022-08-07T11:46:43.828Z,956.77
2022-08-07T11:47:56.663Z,956.74
2022-08-07T11:48:54.001Z,956.78
2022-08-07T11:50:25.469Z,956.77
2022-08-07T11:50:44.672Z,956.74
2022-08-07T11:51:46.609Z,956.71
2022-08-07T11:52:42.757Z,956.73
2022-08-07T11:53:43.181Z,956.75
2022-08-07T11:54:54.489Z,956.81
2022-08-07T11:56:15.651Z,956.79
2022-08-07T11:56:43.715Z,956.70
2022-08-07T11:57:58.438Z,956.72
2022-08-07T11:58:43.709Z,956.67
2022-08-07T12:00:11.639Z,956.72
2022-08-07T12:00:48.851Z,956.67
2022-08-07T12:01:59.741Z,956.70
2022-08-07T12:02:52.705Z,956.68
2022-08-07T12:03:45.422Z,956.67
2022-08-07T12:04:42.645Z,956.67
2022-08-07T12:05:49.595Z,956.64
2022-08-07T12:06:51.707Z,956.57
2022-08-07T12:07:44.031Z,956.63
2022-08-07T12:08:43.587Z,956.64
2022-08-07T12:09:42.574Z,956.64
2022-08-07T12:10:42.565Z,956.56
2022-08-07T12:11:43.478Z,956.59
2022-08-07T12:12:43.535Z,956.55
2022-08-07T12:13:47.556Z,956.53
2022-08-07T12:14:43.525Z,956.54
2022-08-07T12:16:05.202Z,956.53
2022-08-07T12:16:43.493Z,956.48
2022-08-07T12:17:58.822Z,956.49
2022-08-07T12:18:45.315Z,956.46
2022-08-07T12:20:03.294Z,956.55
2022-08-07T12:20:43.455Z,956.55
2022-08-07T12:22:37.934Z,956.55
2022-08-07T12:22:47.342Z,956.55
2022-08-07T12:24:06.861Z,956.55
2022-08-07T12:24:43.397Z,956.51
2022-08-07T12:26:06.139Z,956.51
2022-08-07T12:26:46.843Z,956.56
2022-08-07T12:28:05.777Z,956.48
2022-08-07T12:28:44.953Z,956.55
2022-08-07T12:29:43.345Z,956.46